Time;durP1;ratioP1;P1;durP2;ratioP2;P2;SDS_P1;SDS_P2;PMS_P1;PMS_P2;Temp;Humidity;BMP_temperature;BMP_pressure;BME280_temperature;BME280_humidity;BME280_pressure;Samples;Min_cycle;Max_cycle;Signal;HPM_P1;HPM_P2
2022/10/21 00:01:50;;;;;;;23.83;14.02;;;;;;;;;;5031134;28;20103;-84
2022/10/21 00:04:34;;;;;;;30.40;14.68;;;;;;;;;;5031384;28;20516;-86
2022/10/21 00:07:19;;;;;;;28.13;14.02;;;;;;;;;;5031436;28;20036;-84
2022/10/21 00:10:04;;;;;;;26.10;12.98;;;;;;;;;;5036489;28;20040;-84
2022/10/21 00:12:48;;;;;;;27.40;14.18;;;;;;;;;;5021227;28;20052;-84
2022/10/21 00:15:33;;;;;;;31.40;15.50;;;;;;;;;;5035416;28;20053;-83
2022/10/21 00:18:17;;;;;;;31.40;14.27;;;;;;;;;;5036384;28;20518;-84
2022/10/21 00:21:13;;;;;;;31.92;14.68;;;;;;;;;;5036189;28;20072;-83
2022/10/21 00:23:57;;;;;;;22.63;13.05;;;;;;;;;;5034943;28;20098;-84
2022/10/21 00:26:42;;;;;;;25.23;13.70;;;;;;;;;;5034827;28;20436;-84
2022/10/21 00:29:26;;;;;;;29.48;14.85;;;;;;;;;;5035328;28;20496;-83
2022/10/21 00:32:11;;;;;;;25.42;13.65;;;;;;;;;;5034846;28;20536;-83
2022/10/21 00:34:56;;;;;;;34.72;14.73;;;;;;;;;;5034581;28;20432;-84
2022/10/21 00:37:40;;;;;;;30.95;14.82;;;;;;;;;;5035686;28;20048;-87
2022/10/21 00:40:25;;;;;;;31.05;13.43;;;;;;;;;;5036012;28;20140;-84
2022/10/21 00:43:10;;;;;;;32.90;16.27;;;;;;;;;;5021084;28;20500;-85
2022/10/21 00:45:57;;;;;;;25.70;14.02;;;;;;;;;;5035419;28;20039;-84
2022/10/21 00:48:44;;;;;;;30.17;13.77;;;;;;;;;;5035472;28;20083;-85
2022/10/21 00:51:30;;;;;;;30.52;14.07;;;;;;;;;;5034710;28;20044;-83
2022/10/21 00:54:15;;;;;;;27.92;14.38;;;;;;;;;;5035630;28;20079;-83
2022/10/21 00:57:00;;;;;;;34.42;14.55;;;;;;;;;;5035308;28;20580;-83
2022/10/21 00:59:48;;;;;;;38.28;15.07;;;;;;;;;;5034247;28;20117;-84
2022/10/21 01:02:32;;;;;;;29.42;14.85;;;;;;;;;;5035518;28;20418;-84
2022/10/21 01:05:17;;;;;;;31.65;14.98;;;;;;;;;;5035560;28;20044;-83
2022/10/21 01:08:02;;;;;;;25.30;13.45;;;;;;;;;;5035093;28;20632;-83
2022/10/21 01:10:46;;;;;;;32.95;13.40;;;;;;;;;;5035031;28;20052;-83
2022/10/21 01:13:37;;;;;;;32.45;14.90;;;;;;;;;;5035561;28;20048;-83
2022/10/21 01:16:36;;;;;;;29.33;13.98;;;;;;;;;;5034359;28;20185;-83
2022/10/21 01:19:27;;;;;;;31.58;14.82;;;;;;;;;;5033677;28;20039;-83
2022/10/21 01:22:15;;;;;;;30.38;14.10;;;;;;;;;;5035273;28;20043;-83
2022/10/21 01:25:26;;;;;;;32.67;14.23;;;;;;;;;;5034702;28;20044;-84
2022/10/21 01:28:33;;;;;;;31.02;13.73;;;;;;;;;;5035237;28;20040;-83
2022/10/21 01:31:20;;;;;;;35.13;14.65;;;;;;;;;;5035055;28;20510;-84
2022/10/21 01:34:18;;;;;;;30.05;13.85;;;;;;;;;;5033508;28;20047;-83
2022/10/21 01:37:18;;;;;;;32.20;14.25;;;;;;;;;;5033490;28;20488;-84
2022/10/21 01:40:08;;;;;;;27.73;13.23;;;;;;;;;;5032848;28;20048;-84
2022/10/21 01:42:56;;;;;;;24.23;13.85;;;;;;;;;;5033350;28;20389;-83
2022/10/21 01:45:48;;;;;;;35.10;13.65;;;;;;;;;;5034743;28;20473;-83
2022/10/21 01:48:39;;;;;;;32.28;13.93;;;;;;;;;;5033620;28;20052;-83
2022/10/21 01:51:26;;;;;;;32.47;14.50;;;;;;;;;;5033444;28;20410;-83
2022/10/21 01:54:18;;;;;;;32.75;15.02;;;;;;;;;;5034255;28;20452;-85
2022/10/21 01:57:04;;;;;;;28.35;14.40;;;;;;;;;;5034120;28;20036;-84
2022/10/21 01:59:49;;;;;;;33.67;15.35;;;;;;;;;;5033472;28;20041;-86
2022/10/21 02:02:36;;;;;;;30.40;13.88;;;;;;;;;;5034494;28;20111;-84
2022/10/21 02:05:22;;;;;;;33.08;14.55;;;;;;;;;;5034415;28;20040;-84
2022/10/21 02:08:07;;;;;;;32.97;15.13;;;;;;;;;;5032907;28;20075;-84
2022/10/21 02:10:53;;;;;;;32.45;14.57;;;;;;;;;;5034012;28;20469;-87
2022/10/21 02:13:44;;;;;;;42.33;16.20;;;;;;;;;;5033107;28;20040;-84
2022/10/21 02:16:31;;;;;;;33.08;14.52;;;;;;;;;;5034280;28;20036;-84
2022/10/21 02:19:17;;;;;;;35.25;15.30;;;;;;;;;;5032706;28;20036;-84
2022/10/21 02:22:03;;;;;;;36.05;15.60;;;;;;;;;;5032558;28;20057;-84
2022/10/21 02:24:59;;;;;;;32.85;16.02;;;;;;;;;;5032951;28;20465;-84
2022/10/21 02:27:44;;;;;;;33.40;15.60;;;;;;;;;;5033919;28;20095;-84
2022/10/21 02:30:32;;;;;;;31.23;14.45;;;;;;;;;;5032835;28;20049;-84
2022/10/21 02:33:26;;;;;;;35.13;15.25;;;12.00;99.90;;;;;;5031592;28;20064;-83
2022/10/21 02:36:16;;;;;;;34.17;15.05;;;;;;;;;;5033474;28;20123;-84
2022/10/21 02:39:04;;;;;;;41.47;15.70;;;;;;;;;;5032329;28;20122;-84
2022/10/21 02:41:49;;;;;;;32.90;15.30;;;;;;;;;;5033753;28;20103;-84
2022/10/21 02:44:34;;;;;;;36.10;16.08;;;;;;;;;;5032567;28;20040;-86
2022/10/21 02:47:19;;;;;;;30.13;15.52;;;;;;;;;;5032174;28;20044;-87
2022/10/21 02:50:04;;;;;;;32.78;14.10;;;;;;;;;;5033168;28;20444;-87
2022/10/21 02:52:49;;;;;;;38.80;16.02;;;;;;;;;;5032417;28;20573;-86
2022/10/21 02:55:33;;;;;;;31.35;15.82;;;;;;;;;;5032474;28;20401;-86
2022/10/21 02:58:18;;;;;;;42.00;16.95;;;;;;;;;;5033063;28;20717;-87
2022/10/21 03:01:03;;;;;;;40.58;15.15;;;;;;;;;;5032001;28;20183;-86
2022/10/21 03:03:47;;;;;;;33.25;15.85;;;;;;;;;;5032335;28;20164;-85
2022/10/21 03:06:32;;;;;;;32.45;14.77;;;;;;;;;;5032291;28;20044;-86
2022/10/21 03:09:17;;;;;;;34.83;15.73;;;;;;;;;;5031894;28;20036;-86
2022/10/21 03:12:01;;;;;;;41.75;16.17;;;;;;;;;;5031707;28;20448;-86
2022/10/21 03:14:46;;;;;;;37.53;16.48;;;;;;;;;;5033132;28;20083;-85
2022/10/21 03:17:30;;;;;;;39.83;16.30;;;;;;;;;;5033208;28;20130;-86
2022/10/21 03:20:15;;;;;;;38.78;15.95;;;;;;;;;;5031439;28;20127;-86
2022/10/21 03:23:00;;;;;;;42.42;16.15;;;;;;;;;;5031884;28;20048;-87
2022/10/21 03:25:44;;;;;;;41.25;16.75;;;;;;;;;;5031939;28;20397;-85
2022/10/21 03:28:29;;;;;;;35.85;15.52;;;;;;;;;;5032836;28;20047;-85
2022/10/21 03:31:14;;;;;;;41.72;17.50;;;;;;;;;;5031289;28;20044;-85
2022/10/21 03:33:58;;;;;;;52.03;16.48;;;;;;;;;;5033243;28;20072;-86
2022/10/21 03:36:42;;;;;;;41.05;16.63;;;;;;;;;;5032762;28;20092;-86
2022/10/21 03:39:27;;;;;;;48.15;17.60;;;;;;;;;;5032586;28;20091;-85
2022/10/21 03:42:11;;;;;;;37.97;15.35;;;;;;;;;;5031268;28;20172;-84
2022/10/21 03:44:56;;;;;;;38.13;16.13;;;;;;;;;;5017814;28;20111;-85
2022/10/21 03:47:40;;;;;;;34.75;15.95;;;;;;;;;;5031629;28;20048;-85
2022/10/21 03:50:25;;;;;;;43.47;15.90;;;;;;;;;;5031148;28;20543;-85
2022/10/21 03:53:10;;;;;;;37.92;15.32;;;;;;;;;;5017444;28;20072;-84
2022/10/21 03:55:54;;;;;;;43.40;16.52;;;;;;;;;;5031427;28;20092;-84
2022/10/21 03:58:39;;;;;;;38.05;14.38;;;;;;;;;;5017825;28;20091;-84
2022/10/21 04:01:24;;;;;;;47.83;16.20;;;;;;;;;;5032103;28;20056;-84
2022/10/21 04:04:08;;;;;;;39.53;14.27;;;;;;;;;;5030979;28;20063;-85
2022/10/21 04:06:53;;;;;;;33.83;14.23;;;;;;;;;;5031411;28;20615;-84
2022/10/21 04:09:37;;;;;;;33.75;12.98;;;;;;;;;;5031390;28;20586;-85
2022/10/21 04:12:22;;;;;;;41.47;13.95;;;;;;;;;;5031921;28;20413;-84
2022/10/21 04:15:07;;;;;;;42.17;14.30;;;;;;;;;;5031326;28;20136;-87
2022/10/21 04:17:51;;;;;;;42.65;14.80;;;;;;;;;;5017444;28;20115;-84
2022/10/21 04:20:36;;;;;;;40.65;14.52;;;;;;;;;;5031566;28;20041;-84
2022/10/21 04:23:20;;;;;;;42.92;14.35;;;;;;;;;;5031905;28;20048;-84
2022/10/21 04:26:05;;;;;;;45.40;14.50;;;;;;;;;;5017353;28;20079;-84
2022/10/21 04:28:49;;;;;;;38.80;15.55;;;;;;;;;;5031171;28;20078;-84
2022/10/21 04:31:34;;;;;;;44.78;15.18;;;;;;;;;;5031977;28;20128;-84
2022/10/21 04:34:18;;;;;;;36.72;13.73;;;;;;;;;;5030740;28;20099;-84
2022/10/21 04:37:03;;;;;;;36.75;14.63;;;;;;;;;;5030986;28;20445;-84
2022/10/21 04:39:48;;;;;;;46.33;15.95;;;;;;;;;;5032202;28;20097;-84
2022/10/21 04:42:32;;;;;;;51.63;15.15;;;;;;;;;;5030719;28;20493;-84
2022/10/21 04:45:17;;;;;;;58.83;15.35;;;;;;;;;;5030622;28;20512;-84
2022/10/21 04:48:02;;;;;;;48.85;15.00;;;;;;;;;;5032064;28;20064;-84
2022/10/21 04:50:50;;;;;;;79.38;17.70;;;;;;;;;;5031950;28;20048;-84
2022/10/21 04:53:35;;;;;;;99.38;18.95;;;;;;;;;;5030648;28;20044;-84
2022/10/21 04:56:20;;;;;;;68.25;15.82;;;;;;;;;;5019373;28;20036;-84
2022/10/21 04:59:04;;;;;;;156.10;20.60;;;;;;;;;;5035666;28;20500;-85
2022/10/21 05:01:49;;;;;;;167.45;21.20;;;;;;;;;;5020751;28;20044;-84
2022/10/21 05:04:33;;;;;;;150.15;20.40;;;;;;;;;;5035106;28;20037;-83
2022/10/21 05:07:18;;;;;;;169.88;20.10;;;;;;;;;;5035213;28;20092;-84
2022/10/21 05:10:02;;;;;;;209.75;22.10;;;;;;;;;;5035364;28;20049;-84
2022/10/21 05:12:47;;;;;;;136.90;20.92;;;;;;;;;;5035256;28;20404;-84
2022/10/21 05:15:32;;;;;;;98.68;18.90;;;;;;;;;;5020150;28;20098;-84
2022/10/21 05:18:16;;;;;;;127.95;18.92;;;;;;;;;;5034863;28;20040;-85
2022/10/21 05:21:01;;;;;;;124.97;19.85;;;;;;;;;;5035233;28;20528;-85
2022/10/21 05:23:46;;;;;;;104.57;19.52;;;;;;;;;;5020455;28;20040;-84
2022/10/21 05:26:30;;;;;;;89.43;18.13;;;;;;;;;;5034713;28;20504;-84
2022/10/21 05:29:15;;;;;;;97.93;18.25;;;;;;;;;;5035166;28;20420;-84
2022/10/21 05:31:59;;;;;;;128.32;19.25;;;;;;;;;;5034784;28;20441;-84
2022/10/21 05:34:44;;;;;;;77.20;16.90;;;;;;;;;;5034000;28;20095;-84
2022/10/21 05:37:28;;;;;;;89.03;17.60;;;;;;;;;;5033557;28;20040;-84
2022/10/21 05:40:13;;;;;;;84.38;19.42;;;;;;;;;;5019969;28;20040;-84
2022/10/21 05:42:57;;;;;;;131.57;21.77;;;;;;;;;;5034821;28;20044;-84
2022/10/21 05:45:42;;;;;;;63.78;16.98;;;;;;;;;;5034421;28;20116;-84
2022/10/21 05:48:27;;;;;;;64.22;17.35;;;;;;;;;;5034264;28;20090;-84
2022/10/21 05:51:11;;;;;;;80.85;19.05;;;;;;;;;;5034508;28;20048;-84
2022/10/21 05:53:57;;;;;;;61.78;17.85;;;;;;;;;;5033631;28;20088;-86
2022/10/21 05:56:41;;;;;;;91.05;19.88;;;;;;;;;;5033073;28;20102;-84
2022/10/21 05:59:26;;;;;;;74.68;18.35;;;;;;;;;;5033586;28;20056;-84
2022/10/21 06:02:11;;;;;;;60.05;17.67;;;;;;;;;;5033386;28;20040;-84
2022/10/21 06:04:55;;;;;;;54.08;16.98;;;;;;;;;;5034319;28;20401;-84
2022/10/21 06:07:40;;;;;;;57.70;17.20;;;;;;;;;;5033303;28;20284;-84
2022/10/21 06:10:24;;;;;;;43.25;16.60;;;;;;;;;;5033712;28;20600;-85
2022/10/21 06:13:09;;;;;;;43.65;14.93;;;;;;;;;;5033914;28;20049;-84
2022/10/21 06:15:54;;;;;;;40.90;15.77;;;;;;;;;;5033129;28;20124;-84
2022/10/21 06:18:39;;;;;;;45.08;15.40;;;;;;;;;;5018869;28;20429;-83
2022/10/21 06:21:24;;;;;;;42.30;16.52;;;;;;;;;;5033782;28;20105;-84
2022/10/21 06:24:08;;;;;;;40.63;14.95;;;;;;;;;;5033035;28;20044;-83
2022/10/21 06:26:53;;;;;;;42.70;15.18;;;;;;;;;;5032906;28;20036;-84
2022/10/21 06:29:37;;;;;;;41.58;15.40;;;;;;;;;;5032661;28;20083;-84
2022/10/21 06:32:22;;;;;;;45.97;17.20;;;;;;;;;;5032809;28;20107;-83
2022/10/21 06:35:07;;;;;;;37.53;15.25;;;;;;;;;;5033903;28;20096;-84
2022/10/21 06:37:52;;;;;;;51.45;16.05;;;;;;;;;;5018903;28;20043;-84
2022/10/21 06:40:36;;;;;;;44.80;14.57;;;;;;;;;;5032362;28;20531;-84
2022/10/21 06:43:21;;;;;;;38.10;16.02;;;;;;;;;;5032350;28;20110;-86
2022/10/21 06:46:07;;;;;;;38.40;15.70;;;;;;;;;;5032714;28;20512;-85
2022/10/21 06:48:52;;;;;;;36.53;14.55;;;;;;;;;;5033245;28;20056;-83
2022/10/21 06:51:37;;;;;;;38.60;14.05;;;;;;;;;;5032091;28;20043;-84
2022/10/21 06:54:21;;;;;;;45.30;16.00;;;;;;;;;;5032401;28;20088;-83
2022/10/21 06:57:06;;;;;;;38.22;14.93;;;;;;;;;;5032301;28;20117;-85
2022/10/21 06:59:50;;;;;;;38.20;15.05;;;;;;;;;;5018035;28;20568;-84
2022/10/21 07:02:35;;;;;;;41.28;15.65;;;;;;;;;;5031834;28;20043;-84
2022/10/21 07:05:19;;;;;;;35.58;14.55;;;;;;;;;;5032143;28;20041;-84
2022/10/21 07:08:04;;;;;;;35.30;13.68;;;;;;;;;;5032090;28;20032;-84
2022/10/21 07:10:48;;;;;;;38.75;15.68;;;;;;;;;;5031730;28;20091;-84
2022/10/21 07:13:34;;;;;;;37.47;15.15;;;12.00;99.90;;;;;;5031807;28;20048;-84
2022/10/21 07:16:26;;;;;;;41.75;14.60;;;;;;;;;;5032168;28;20459;-84
2022/10/21 07:19:10;;;;;;;45.28;14.45;;;;;;;;;;5032371;28;20091;-84
2022/10/21 07:21:55;;;;;;;42.13;16.13;;;;;;;;;;5031525;28;20512;-84
2022/10/21 07:24:40;;;;;;;33.60;13.82;;;;;;;;;;5031525;28;20041;-84
2022/10/21 07:27:25;;;;;;;38.70;14.05;;;;;;;;;;5031902;28;20480;-84
2022/10/21 07:30:09;;;;;;;40.50;15.85;;;;;;;;;;5032588;28;20083;-84
2022/10/21 07:32:54;;;;;;;40.42;14.68;;;;;;;;;;5031326;28;20708;-84
2022/10/21 07:35:39;;;;;;;39.67;15.05;;;;;;;;;;5035215;28;20405;-84
2022/10/21 07:38:23;;;;;;;48.45;15.35;;;;;;;;;;5031730;28;20084;-84
2022/10/21 07:41:08;;;;;;;36.65;14.23;;;;;;;;;;5031608;28;20048;-84
2022/10/21 07:43:53;;;;;;;40.03;13.98;;;;;;;;;;5017294;28;20067;-84
2022/10/21 07:46:39;;;;;;;40.42;16.33;;;;;;;;;;5031239;28;20094;-85
2022/10/21 07:49:24;;;;;;;39.50;14.57;;;;;;;;;;5031506;28;20099;-84
2022/10/21 07:52:09;;;;;;;37.97;14.95;;;;;;;;;;5031505;28;20079;-84
2022/10/21 07:54:53;;;;;;;45.63;15.40;;;;;;;;;;5031229;28;20048;-84
2022/10/21 07:57:38;;;;;;;35.80;14.68;;;;;;;;;;5031062;28;20463;-86
2022/10/21 08:00:22;;;;;;;35.60;14.52;;;;;;;;;;5031691;28;20091;-84
2022/10/21 08:03:07;;;;;;;36.33;15.05;;;;;;;;;;5019485;28;20104;-84
2022/10/21 08:05:51;;;;;;;34.90;15.35;;;;;;;;;;5030991;28;20092;-85
2022/10/21 08:08:36;;;;;;;35.45;14.50;;;;;;;;;;5032561;28;20041;-84
2022/10/21 08:11:21;;;;;;;39.30;15.13;;;;;;;;;;5032263;28;20095;-84
2022/10/21 08:14:07;;;;;;;35.42;15.18;;;;;;;;;;5031263;28;20088;-84
2022/10/21 08:16:53;;;;;;;36.72;14.65;;;;;;;;;;5030946;28;20088;-82
2022/10/21 08:19:38;;;;;;;33.53;14.77;;;;;;;;;;5032418;28;20076;-84
2022/10/21 08:22:22;;;;;;;32.28;13.60;;;;;;;;;;5032223;28;20495;-84
2022/10/21 08:25:07;;;;;;;31.08;14.85;;;;;;;;;;5017485;28;20064;-84
2022/10/21 08:27:52;;;;;;;32.88;14.88;;;;;;;;;;5017117;28;20044;-85
2022/10/21 08:30:37;;;;;;;25.70;14.68;;;;;;;;;;5020733;28;20103;-84
2022/10/21 08:33:21;;;;;;;25.00;13.27;;;;;;;;;;5034815;28;20473;-85
2022/10/21 08:36:16;;;;;;;28.23;14.65;;;;;;;;;;5034695;28;20044;-85
2022/10/21 08:39:01;;;;;;;26.77;13.20;;;;;;;;;;5035656;28;20104;-85
2022/10/21 08:41:45;;;;;;;24.80;13.02;;;;;;;;;;5020629;28;20048;-85
2022/10/21 08:44:53;;;;;;;23.88;12.77;;;16.20;99.90;;;;;;5035966;28;20448;-84
2022/10/21 08:47:46;;;;;;;23.23;12.43;;;;;;;;;;5033219;28;20052;-85
2022/10/21 08:50:42;;;;;;;21.20;11.82;;;;;;;;;;5035594;28;20500;-85
2022/10/21 08:53:44;;;;;;;18.42;11.70;;;;;;;;;;5035848;28;20044;-85
2022/10/21 08:56:32;;;;;;;18.80;11.70;;;;;;;;;;5034919;28;20036;-84
2022/10/21 08:59:22;;;;;;;19.08;11.85;;;;;;;;;;5034554;28;20101;-87
2022/10/21 09:02:12;;;;;;;20.15;12.27;;;;;;;;;;5034147;28;20041;-88
2022/10/21 09:05:15;;;;;;;21.40;11.43;;;;;;;;;;5034186;28;20497;-85
2022/10/21 09:08:05;;;;;;;18.42;10.30;;;;;;;;;;5034032;28;20051;-85
2022/10/21 09:10:56;;;;;;;18.40;9.52;;;;;;;;;;5033788;28;20103;-85
2022/10/21 09:13:46;;;;;;;16.35;10.07;;;;;;;;;;5035421;28;20500;-85
2022/10/21 09:16:37;;;;;;;14.32;8.85;;;;;;;;;;5035342;28;20119;-85
2022/10/21 09:19:31;;;;;;;14.07;8.82;;;;;;;;;;5034334;28;20045;-84
2022/10/21 09:22:31;;;;;;;13.60;8.65;;;;;;;;;;5034458;28;20056;-85
2022/10/21 09:25:20;;;;;;;12.52;7.47;;;;;;;;;;5034035;28;20107;-84
2022/10/21 09:28:13;;;;;;;11.70;8.00;;;;;;;;;;5033637;28;20036;-84
2022/10/21 09:31:00;;;;;;;14.80;7.75;;;;;;;;;;5033699;28;20091;-86
2022/10/21 09:33:46;;;;;;;14.30;8.18;;;;;;;;;;5033910;28;20394;-86
2022/10/21 09:36:38;;;;;;;13.80;8.70;;;;;;;;;;5034753;28;20048;-86
2022/10/21 09:39:27;;;;;;;17.77;8.65;;;;;;;;;;5034837;28;20040;-86
2022/10/21 09:42:12;;;;;;;15.70;8.23;;;;;;;;;;5032723;28;20044;-88
2022/10/21 09:44:57;;;;;;;14.45;8.23;;;;;;;;;;5033350;28;20083;-86
2022/10/21 09:47:42;;;;;;;14.30;7.60;;;;;;;;;;5034855;28;20092;-89
2022/10/21 09:50:30;;;;;;;13.27;8.43;;;;;;;;;;5033583;28;20139;-86
2022/10/21 09:53:16;;;;;;;12.82;8.65;;;;;;;;;;5033364;28;20044;-85
2022/10/21 09:56:09;;;;;;;17.08;8.45;;;;;;;;;;5033069;28;20087;-85
2022/10/21 09:59:08;;;;;;;12.48;8.75;;;;;;;;;;5034280;28;20087;-87
2022/10/21 10:01:53;;;;;;;12.27;8.20;;;;;;;;;;5033441;28;20095;-83
2022/10/21 10:04:38;;;;;;;12.57;7.90;;;;;;;;;;5034404;28;20035;-84
2022/10/21 10:07:22;;;;;;;11.43;7.93;;;;;;;;;;5034339;28;20041;-83
2022/10/21 10:10:28;;;;;;;17.15;8.32;;;;;;;;;;5033908;28;20036;-84
2022/10/21 10:13:17;;;;;;;19.50;8.02;;;;;;;;;;5033826;28;20040;-85
2022/10/21 10:16:24;;;;;;;14.68;8.05;;;;;;;;;;5032638;28;20508;-84
2022/10/21 10:19:16;;;;;;;13.95;8.18;;;;;;;;;;5032710;28;20040;-83
2022/10/21 10:22:08;;;;;;;14.18;7.95;;;;;;;;;;5033751;28;20508;-84
2022/10/21 10:24:53;;;;;;;12.73;7.63;;;;;;;;;;5033070;28;20140;-83
2022/10/21 10:27:58;;;;;;;12.68;7.78;;;;;;;;;;5034108;28;20045;-83
2022/10/21 10:30:42;;;;;;;12.63;7.35;;;;;;;;;;5033822;28;20044;-82
2022/10/21 10:33:31;;;;;;;11.13;7.68;;;;;;;;;;5032727;28;20132;-82
2022/10/21 10:36:24;;;;;;;14.82;7.30;;;;;;;;;;5033422;28;20500;-82
2022/10/21 10:39:16;;;;;;;12.23;7.07;;;;;;;;;;5032443;28;20040;-83
2022/10/21 10:42:01;;;;;;;10.95;6.93;;;;;;;;;;5033449;28;20543;-85
2022/10/21 10:44:46;;;;;;;14.35;7.82;;;;;;;;;;5033631;28;20036;-83
2022/10/21 10:47:33;;;;;;;14.43;6.78;;;;;;;;;;5032485;28;20520;-82
2022/10/21 10:50:36;;;;;;;15.55;7.07;;;;;;;;;;5033128;28;20052;-83
2022/10/21 10:53:22;;;;;;;15.13;7.13;;;;;;;;;;5032289;28;20711;-83
2022/10/21 10:56:22;;;;;;;15.05;6.45;;;;;;;;;;5032903;28;20056;-83
2022/10/21 10:59:20;;;;;;;13.23;6.80;;;;;;;;;;5032943;28;20036;-83
